Air Quality Table

TIMESTAMP NO2 SO2 O3 PM10 PM2.5 CO TEMP HUM AIRPRES WS WD NO BENZENE
2022-11-30 09:00 33.87 µg/m3 0.22 µg/m3 29.27 µg/m3 7.4 µg/m3 3.93 µg/m3 0.31 mg/m3 12.28 °C 92.45 % 1,006.40 mbar 1.29 m/s 244.8 Deg 32.02 µg/m3 1.52 µg/m3
2022-11-30 01:00 18.01 µg/m3 -0.07 µg/m3 48.15 µg/m3 10.91 µg/m3 4.77 µg/m3 0.32 mg/m3 12.93 °C 92.5 % 1,006.22 mbar 1.52 m/s 221.32 Deg 3.99 µg/m3 1.03 µg/m3
2022-11-29 17:00 28.64 µg/m3 -0.07 µg/m3 42.4 µg/m3 14.87 µg/m3 5.94 µg/m3 0.33 mg/m3 14.67 °C 86.4 % 1,006.11 mbar 1.24 m/s 205.12 Deg 10.86 µg/m3 1.11 µg/m3
2022-11-29 09:00 27.57 µg/m3 0.11 µg/m3 40.09 µg/m3 11.45 µg/m3 6.11 µg/m3 0.3 mg/m3 13.02 °C 90.11 % 1,008.69 mbar 0.94 m/s 167.82 Deg 7.19 µg/m3 1.05 µg/m3
2022-11-29 01:00 39.51 µg/m3 0.51 µg/m3 21.06 µg/m3 22.11 µg/m3 11.16 µg/m3 0.42 mg/m3 14.24 °C 74.6 % 1,012.74 mbar 0.67 m/s 202 Deg 14.51 µg/m3 2.4 µg/m3
2022-11-28 17:00 23.33 µg/m3 0.19 µg/m3 48.39 µg/m3 36.03 µg/m3 10.81 µg/m3 0.29 mg/m3 16.81 °C 65.82 % 1,014.71 mbar 2.36 m/s 100.87 Deg 12.96 µg/m3 1.08 µg/m3
2022-11-28 09:00 10.28 µg/m3 -0.12 µg/m3 60.74 µg/m3 28.56 µg/m3 10.51 µg/m3 0.22 mg/m3 16.75 °C 72.29 % 1,015.44 mbar 5.42 m/s 61.52 Deg 2.28 µg/m3 0.82 µg/m3
2022-11-28 01:00 0.9 µg/m3 -0.24 µg/m3 63.51 µg/m3 30.66 µg/m3 13.4 µg/m3 0.22 mg/m3 16.62 °C 81.79 % 1,013.60 mbar 10.48 m/s 62.1 Deg 0.13 µg/m3 0.75 µg/m3
2022-11-27 17:00 2.47 µg/m3 -0.34 µg/m3 65.15 µg/m3 23.39 µg/m3 13.36 µg/m3 0.21 mg/m3 16.27 °C 92.42 % 1,008.24 mbar 13.69 m/s 55.54 Deg 1.06 µg/m3 0.7 µg/m3
2022-11-27 09:00 5.62 µg/m3 -0.25 µg/m3 64.61 µg/m3 9.39 µg/m3 4.78 µg/m3 0.19 mg/m3 16.32 °C 86.58 % 1,005.29 mbar 8.34 m/s 38.71 Deg 0.03 µg/m3 0.43 µg/m3
2022-11-27 01:00 6.64 µg/m3 -0.23 µg/m3 59.09 µg/m3 8.01 µg/m3 3.43 µg/m3 0.26 mg/m3 15.97 °C 81.13 % 1,007.47 mbar 3.67 m/s 188.76 Deg 1.07 µg/m3 0.58 µg/m3
2022-11-26 17:00 17.53 µg/m3 0.01 µg/m3 46.74 µg/m3 9.58 µg/m3 4.39 µg/m3 0.28 mg/m3 16.1 °C 88.37 % 1,010.63 mbar 2.14 m/s 264.49 Deg 7.61 µg/m3 0.73 µg/m3
2022-11-26 09:00 24.39 µg/m3 0.3 µg/m3 40.13 µg/m3 13.18 µg/m3 5.92 µg/m3 0.3 mg/m3 17.32 °C 84.7 % 1,014.91 mbar 1.27 m/s 212.79 Deg 6.93 µg/m3 0.77 µg/m3
2022-11-26 01:00 47.66 µg/m3 1.46 µg/m3 13.83 µg/m3 41.35 µg/m3 14.63 µg/m3 0.5 mg/m3 15.08 °C 83.34 % 1,019.01 mbar 0.58 m/s 227.71 Deg 43.23 µg/m3 2.67 µg/m3
2022-11-25 17:00 21.42 µg/m3 0.06 µg/m3 52.93 µg/m3 24.99 µg/m3 8.83 µg/m3 0.32 mg/m3 18.69 °C 65.31 % 1,019.73 mbar 2 m/s 213.78 Deg 10.94 µg/m3 1.05 µg/m3
2022-11-25 09:00 23.8 µg/m3 -0.21 µg/m3 45.05 µg/m3 29.43 µg/m3 9.68 µg/m3 0.27 mg/m3 16.52 °C 77.44 % 1,018.82 mbar 1.54 m/s 268.84 Deg 9.04 µg/m3 0.68 µg/m3
2022-11-25 01:00 7.08 µg/m3 -0.27 µg/m3 62.75 µg/m3 26.35 µg/m3 12.21 µg/m3 0.24 mg/m3 17.69 °C 77.86 % 1,016.76 mbar 2.36 m/s 298.31 Deg 0.95 µg/m3 0.61 µg/m3
2022-11-24 17:00 9.6 µg/m3 -0.24 µg/m3 56.55 µg/m3 22.01 µg/m3 9.33 µg/m3 0.25 mg/m3 19.62 °C 73.63 % 1,014.45 mbar 4.38 m/s 294.1 Deg 4.4 µg/m3 0.55 µg/m3
2022-11-24 09:00 9.38 µg/m3 -0.34 µg/m3 47.42 µg/m3 21.5 µg/m3 12.35 µg/m3 0.19 mg/m3 19.01 °C 85.38 % 1,011.68 mbar 4.22 m/s 298.31 Deg 2.17 µg/m3 0.36 µg/m3
2022-11-24 01:00 2.85 µg/m3 -0.36 µg/m3 56.74 µg/m3 10.95 µg/m3 5.92 µg/m3 0.2 mg/m3 18.38 °C 84.38 % 1,010.46 mbar 5.07 m/s 278.55 Deg 0.7 µg/m3 0.44 µg/m3

It is to be noted that the data is provisional and subject to quality assurance procedures. For validated data kindly refer your request to contact.air@era.org.mt